sensor_id;sensor_type;location;lat;lon;timestamp;P1;durP1;ratioP1;P2;durP2;ratioP2
32130;SDS011;18639;50.716;7.086;2022-10-16T00:02:19;0.50;;;0.50;;
32130;SDS011;18639;50.716;7.086;2022-10-16T00:04:44;0.30;;;0.30;;
32130;SDS011;18639;50.716;7.086;2022-10-16T00:07:09;0.40;;;0.40;;
32130;SDS011;18639;50.716;7.086;2022-10-16T00:09:34;0.80;;;0.40;;
32130;SDS011;18639;50.716;7.086;2022-10-16T00:12:00;0.65;;;0.43;;
32130;SDS011;18639;50.716;7.086;2022-10-16T00:14:25;1.10;;;0.50;;
32130;SDS011;18639;50.716;7.086;2022-10-16T00:16:50;0.57;;;0.45;;
32130;SDS011;18639;50.716;7.086;2022-10-16T00:19:16;0.40;;;0.40;;
32130;SDS011;18639;50.716;7.086;2022-10-16T00:21:41;0.50;;;0.40;;
32130;SDS011;18639;50.716;7.086;2022-10-16T00:24:08;0.73;;;0.55;;
32130;SDS011;18639;50.716;7.086;2022-10-16T00:26:35;0.47;;;0.45;;
32130;SDS011;18639;50.716;7.086;2022-10-16T00:29:01;1.10;;;0.57;;
32130;SDS011;18639;50.716;7.086;2022-10-16T00:31:28;0.90;;;0.60;;
32130;SDS011;18639;50.716;7.086;2022-10-16T00:33:54;0.40;;;0.40;;
32130;SDS011;18639;50.716;7.086;2022-10-16T00:36:20;1.17;;;0.60;;
32130;SDS011;18639;50.716;7.086;2022-10-16T00:38:49;0.32;;;0.30;;
32130;SDS011;18639;50.716;7.086;2022-10-16T00:41:17;0.60;;;0.40;;
32130;SDS011;18639;50.716;7.086;2022-10-16T00:43:45;0.50;;;0.40;;
32130;SDS011;18639;50.716;7.086;2022-10-16T00:46:15;1.58;;;0.82;;
32130;SDS011;18639;50.716;7.086;2022-10-16T00:48:41;0.50;;;0.50;;
32130;SDS011;18639;50.716;7.086;2022-10-16T00:51:16;0.95;;;0.50;;
32130;SDS011;18639;50.716;7.086;2022-10-16T00:53:44;1.10;;;0.60;;
32130;SDS011;18639;50.716;7.086;2022-10-16T00:56:09;0.88;;;0.60;;
32130;SDS011;18639;50.716;7.086;2022-10-16T00:58:35;0.80;;;0.47;;
32130;SDS011;18639;50.716;7.086;2022-10-16T01:01:00;0.50;;;0.50;;
32130;SDS011;18639;50.716;7.086;2022-10-16T01:03:30;4.60;;;0.40;;
32130;SDS011;18639;50.716;7.086;2022-10-16T01:05:59;1.15;;;0.60;;
32130;SDS011;18639;50.716;7.086;2022-10-16T01:08:34;0.30;;;0.30;;
32130;SDS011;18639;50.716;7.086;2022-10-16T01:11:27;0.40;;;0.40;;
32130;SDS011;18639;50.716;7.086;2022-10-16T01:14:00;0.95;;;0.40;;
32130;SDS011;18639;50.716;7.086;2022-10-16T01:16:49;0.43;;;0.40;;
32130;SDS011;18639;50.716;7.086;2022-10-16T01:19:40;0.40;;;0.40;;
32130;SDS011;18639;50.716;7.086;2022-10-16T01:22:17;0.70;;;0.50;;
32130;SDS011;18639;50.716;7.086;2022-10-16T01:24:49;0.38;;;0.38;;
32130;SDS011;18639;50.716;7.086;2022-10-16T01:27:16;5.32;;;0.50;;
32130;SDS011;18639;50.716;7.086;2022-10-16T01:29:52;0.60;;;0.50;;
32130;SDS011;18639;50.716;7.086;2022-10-16T01:32:23;0.85;;;0.55;;
32130;SDS011;18639;50.716;7.086;2022-10-16T01:34:59;0.50;;;0.50;;
32130;SDS011;18639;50.716;7.086;2022-10-16T01:37:38;0.65;;;0.55;;
32130;SDS011;18639;50.716;7.086;2022-10-16T01:40:09;0.30;;;0.30;;
32130;SDS011;18639;50.716;7.086;2022-10-16T01:42:38;0.80;;;0.50;;
32130;SDS011;18639;50.716;7.086;2022-10-16T01:45:07;0.50;;;0.40;;
32130;SDS011;18639;50.716;7.086;2022-10-16T01:47:36;0.60;;;0.50;;
32130;SDS011;18639;50.716;7.086;2022-10-16T01:50:03;1.50;;;0.60;;
32130;SDS011;18639;50.716;7.086;2022-10-16T01:52:30;1.08;;;0.57;;
32130;SDS011;18639;50.716;7.086;2022-10-16T01:54:59;0.52;;;0.52;;
32130;SDS011;18639;50.716;7.086;2022-10-16T01:57:27;0.30;;;0.30;;
32130;SDS011;18639;50.716;7.086;2022-10-16T01:59:56;0.82;;;0.52;;
32130;SDS011;18639;50.716;7.086;2022-10-16T02:02:26;0.35;;;0.35;;
32130;SDS011;18639;50.716;7.086;2022-10-16T02:04:55;0.50;;;0.50;;
32130;SDS011;18639;50.716;7.086;2022-10-16T02:07:27;0.60;;;0.50;;
32130;SDS011;18639;50.716;7.086;2022-10-16T02:09:52;0.60;;;0.50;;
32130;SDS011;18639;50.716;7.086;2022-10-16T02:12:21;0.70;;;0.60;;
32130;SDS011;18639;50.716;7.086;2022-10-16T02:14:51;1.85;;;0.65;;
32130;SDS011;18639;50.716;7.086;2022-10-16T02:17:18;1.08;;;0.70;;
32130;SDS011;18639;50.716;7.086;2022-10-16T02:19:44;0.43;;;0.40;;
32130;SDS011;18639;50.716;7.086;2022-10-16T02:22:24;0.55;;;0.35;;
32130;SDS011;18639;50.716;7.086;2022-10-16T02:24:59;0.40;;;0.40;;
32130;SDS011;18639;50.716;7.086;2022-10-16T02:27:33;0.50;;;0.50;;
32130;SDS011;18639;50.716;7.086;2022-10-16T02:30:06;0.85;;;0.60;;
32130;SDS011;18639;50.716;7.086;2022-10-16T02:32:42;0.50;;;0.50;;
32130;SDS011;18639;50.716;7.086;2022-10-16T02:35:09;0.88;;;0.60;;
32130;SDS011;18639;50.716;7.086;2022-10-16T02:37:35;0.50;;;0.40;;
32130;SDS011;18639;50.716;7.086;2022-10-16T02:40:01;0.57;;;0.57;;
32130;SDS011;18639;50.716;7.086;2022-10-16T02:42:38;3.65;;;0.45;;
32130;SDS011;18639;50.716;7.086;2022-10-16T02:45:05;0.60;;;0.43;;
32130;SDS011;18639;50.716;7.086;2022-10-16T02:47:32;0.57;;;0.50;;
32130;SDS011;18639;50.716;7.086;2022-10-16T02:49:57;0.65;;;0.50;;
32130;SDS011;18639;50.716;7.086;2022-10-16T02:52:22;0.40;;;0.40;;
32130;SDS011;18639;50.716;7.086;2022-10-16T02:54:48;0.40;;;0.40;;
32130;SDS011;18639;50.716;7.086;2022-10-16T02:57:13;0.35;;;0.35;;
32130;SDS011;18639;50.716;7.086;2022-10-16T02:59:39;0.60;;;0.40;;
32130;SDS011;18639;50.716;7.086;2022-10-16T03:02:04;0.45;;;0.45;;
32130;SDS011;18639;50.716;7.086;2022-10-16T03:04:29;0.40;;;0.40;;
32130;SDS011;18639;50.716;7.086;2022-10-16T03:06:55;1.30;;;0.77;;
32130;SDS011;18639;50.716;7.086;2022-10-16T03:09:20;0.43;;;0.40;;
32130;SDS011;18639;50.716;7.086;2022-10-16T03:11:45;0.35;;;0.35;;
32130;SDS011;18639;50.716;7.086;2022-10-16T03:14:10;0.90;;;0.50;;
32130;SDS011;18639;50.716;7.086;2022-10-16T03:16:36;0.30;;;0.30;;
32130;SDS011;18639;50.716;7.086;2022-10-16T03:19:01;0.50;;;0.35;;
32130;SDS011;18639;50.716;7.086;2022-10-16T03:21:26;0.45;;;0.40;;
32130;SDS011;18639;50.716;7.086;2022-10-16T03:23:52;0.50;;;0.50;;
32130;SDS011;18639;50.716;7.086;2022-10-16T03:26:17;0.75;;;0.40;;
32130;SDS011;18639;50.716;7.086;2022-10-16T03:28:42;0.40;;;0.40;;
32130;SDS011;18639;50.716;7.086;2022-10-16T03:31:07;1.55;;;0.60;;
32130;SDS011;18639;50.716;7.086;2022-10-16T03:33:33;0.40;;;0.40;;
32130;SDS011;18639;50.716;7.086;2022-10-16T03:35:58;0.60;;;0.60;;
32130;SDS011;18639;50.716;7.086;2022-10-16T03:38:24;0.47;;;0.40;;
32130;SDS011;18639;50.716;7.086;2022-10-16T03:40:49;1.00;;;0.40;;
32130;SDS011;18639;50.716;7.086;2022-10-16T03:43:14;0.40;;;0.40;;
32130;SDS011;18639;50.716;7.086;2022-10-16T03:45:40;0.30;;;0.30;;
32130;SDS011;18639;50.716;7.086;2022-10-16T03:48:05;0.52;;;0.47;;
32130;SDS011;18639;50.716;7.086;2022-10-16T03:50:31;0.50;;;0.40;;
32130;SDS011;18639;50.716;7.086;2022-10-16T03:52:56;0.55;;;0.50;;
32130;SDS011;18639;50.716;7.086;2022-10-16T03:55:21;0.57;;;0.40;;
32130;SDS011;18639;50.716;7.086;2022-10-16T03:57:47;3.70;;;0.60;;
32130;SDS011;18639;50.716;7.086;2022-10-16T04:00:12;0.52;;;0.47;;
32130;SDS011;18639;50.716;7.086;2022-10-16T04:02:38;0.55;;;0.50;;
32130;SDS011;18639;50.716;7.086;2022-10-16T04:05:04;0.50;;;0.50;;
32130;SDS011;18639;50.716;7.086;2022-10-16T04:07:29;0.60;;;0.40;;
32130;SDS011;18639;50.716;7.086;2022-10-16T04:09:55;0.77;;;0.40;;
32130;SDS011;18639;50.716;7.086;2022-10-16T04:12:22;0.57;;;0.52;;
32130;SDS011;18639;50.716;7.086;2022-10-16T04:14:47;0.63;;;0.43;;
32130;SDS011;18639;50.716;7.086;2022-10-16T04:17:12;0.70;;;0.63;;
32130;SDS011;18639;50.716;7.086;2022-10-16T04:19:37;0.40;;;0.40;;
32130;SDS011;18639;50.716;7.086;2022-10-16T04:22:03;1.00;;;0.50;;
32130;SDS011;18639;50.716;7.086;2022-10-16T04:24:28;0.60;;;0.50;;
32130;SDS011;18639;50.716;7.086;2022-10-16T04:26:53;0.70;;;0.50;;
32130;SDS011;18639;50.716;7.086;2022-10-16T04:29:18;0.85;;;0.55;;
32130;SDS011;18639;50.716;7.086;2022-10-16T04:31:44;0.47;;;0.30;;
32130;SDS011;18639;50.716;7.086;2022-10-16T04:34:09;0.45;;;0.38;;
32130;SDS011;18639;50.716;7.086;2022-10-16T04:36:34;0.63;;;0.40;;
32130;SDS011;18639;50.716;7.086;2022-10-16T04:39:00;0.55;;;0.40;;
32130;SDS011;18639;50.716;7.086;2022-10-16T04:41:25;0.73;;;0.65;;
32130;SDS011;18639;50.716;7.086;2022-10-16T04:43:50;0.88;;;0.50;;
32130;SDS011;18639;50.716;7.086;2022-10-16T04:46:15;0.63;;;0.50;;
32130;SDS011;18639;50.716;7.086;2022-10-16T04:48:41;0.40;;;0.40;;
32130;SDS011;18639;50.716;7.086;2022-10-16T04:51:06;0.40;;;0.40;;
32130;SDS011;18639;50.716;7.086;2022-10-16T04:53:31;0.40;;;0.40;;
32130;SDS011;18639;50.716;7.086;2022-10-16T04:55:56;1.05;;;0.60;;
32130;SDS011;18639;50.716;7.086;2022-10-16T04:58:22;0.45;;;0.40;;
32130;SDS011;18639;50.716;7.086;2022-10-16T05:00:48;0.68;;;0.50;;
32130;SDS011;18639;50.716;7.086;2022-10-16T05:03:13;0.50;;;0.50;;
32130;SDS011;18639;50.716;7.086;2022-10-16T05:05:42;0.43;;;0.40;;
32130;SDS011;18639;50.716;7.086;2022-10-16T05:08:09;0.40;;;0.40;;
32130;SDS011;18639;50.716;7.086;2022-10-16T05:10:35;0.88;;;0.50;;
32130;SDS011;18639;50.716;7.086;2022-10-16T05:13:00;0.73;;;0.50;;
32130;SDS011;18639;50.716;7.086;2022-10-16T05:15:25;0.50;;;0.40;;
32130;SDS011;18639;50.716;7.086;2022-10-16T05:17:54;0.50;;;0.50;;
32130;SDS011;18639;50.716;7.086;2022-10-16T05:20:20;0.40;;;0.40;;
32130;SDS011;18639;50.716;7.086;2022-10-16T05:22:45;1.02;;;0.60;;
32130;SDS011;18639;50.716;7.086;2022-10-16T05:25:11;0.47;;;0.40;;
32130;SDS011;18639;50.716;7.086;2022-10-16T05:27:36;0.52;;;0.50;;
32130;SDS011;18639;50.716;7.086;2022-10-16T05:30:02;0.70;;;0.50;;
32130;SDS011;18639;50.716;7.086;2022-10-16T05:32:27;0.38;;;0.38;;
32130;SDS011;18639;50.716;7.086;2022-10-16T05:34:53;0.40;;;0.40;;
32130;SDS011;18639;50.716;7.086;2022-10-16T05:37:18;0.68;;;0.45;;
32130;SDS011;18639;50.716;7.086;2022-10-16T05:39:43;0.43;;;0.43;;
32130;SDS011;18639;50.716;7.086;2022-10-16T05:42:08;0.40;;;0.40;;
32130;SDS011;18639;50.716;7.086;2022-10-16T05:44:34;0.65;;;0.45;;
32130;SDS011;18639;50.716;7.086;2022-10-16T05:46:59;0.55;;;0.50;;
32130;SDS011;18639;50.716;7.086;2022-10-16T05:49:24;0.85;;;0.63;;
32130;SDS011;18639;50.716;7.086;2022-10-16T05:51:49;1.25;;;0.63;;
32130;SDS011;18639;50.716;7.086;2022-10-16T05:54:15;0.60;;;0.50;;
32130;SDS011;18639;50.716;7.086;2022-10-16T05:56:40;0.68;;;0.50;;
32130;SDS011;18639;50.716;7.086;2022-10-16T05:59:05;0.88;;;0.60;;
32130;SDS011;18639;50.716;7.086;2022-10-16T06:01:31;1.42;;;0.77;;
32130;SDS011;18639;50.716;7.086;2022-10-16T06:03:57;0.65;;;0.50;;
32130;SDS011;18639;50.716;7.086;2022-10-16T06:06:24;1.08;;;0.60;;
32130;SDS011;18639;50.716;7.086;2022-10-16T06:08:52;0.82;;;0.40;;
32130;SDS011;18639;50.716;7.086;2022-10-16T06:11:20;0.68;;;0.50;;
32130;SDS011;18639;50.716;7.086;2022-10-16T06:13:49;0.40;;;0.40;;
32130;SDS011;18639;50.716;7.086;2022-10-16T06:16:15;0.85;;;0.70;;
32130;SDS011;18639;50.716;7.086;2022-10-16T06:18:41;0.63;;;0.40;;
32130;SDS011;18639;50.716;7.086;2022-10-16T06:21:07;0.60;;;0.50;;
32130;SDS011;18639;50.716;7.086;2022-10-16T06:23:38;0.75;;;0.60;;
32130;SDS011;18639;50.716;7.086;2022-10-16T06:26:07;0.63;;;0.60;;
32130;SDS011;18639;50.716;7.086;2022-10-16T06:28:34;0.98;;;0.47;;
32130;SDS011;18639;50.716;7.086;2022-10-16T06:30:59;0.88;;;0.80;;
32130;SDS011;18639;50.716;7.086;2022-10-16T06:33:25;2.83;;;1.50;;
32130;SDS011;18639;50.716;7.086;2022-10-16T06:35:50;3.25;;;1.65;;
32130;SDS011;18639;50.716;7.086;2022-10-16T06:38:15;2.58;;;1.80;;
32130;SDS011;18639;50.716;7.086;2022-10-16T06:40:41;2.40;;;1.05;;
32130;SDS011;18639;50.716;7.086;2022-10-16T06:43:06;2.42;;;1.00;;
32130;SDS011;18639;50.716;7.086;2022-10-16T06:45:31;2.45;;;0.95;;
32130;SDS011;18639;50.716;7.086;2022-10-16T06:47:57;2.33;;;0.88;;
32130;SDS011;18639;50.716;7.086;2022-10-16T06:50:22;0.60;;;0.60;;
32130;SDS011;18639;50.716;7.086;2022-10-16T06:52:47;1.63;;;1.05;;
32130;SDS011;18639;50.716;7.086;2022-10-16T06:55:12;1.90;;;0.88;;
32130;SDS011;18639;50.716;7.086;2022-10-16T06:57:38;1.40;;;0.70;;
32130;SDS011;18639;50.716;7.086;2022-10-16T07:00:03;0.60;;;0.60;;
32130;SDS011;18639;50.716;7.086;2022-10-16T07:02:29;0.85;;;0.60;;
32130;SDS011;18639;50.716;7.086;2022-10-16T07:04:54;1.30;;;0.60;;
32130;SDS011;18639;50.716;7.086;2022-10-16T07:07:21;0.80;;;0.60;;
32130;SDS011;18639;50.716;7.086;2022-10-16T07:09:49;1.42;;;0.65;;
32130;SDS011;18639;50.716;7.086;2022-10-16T07:12:14;1.45;;;0.65;;
32130;SDS011;18639;50.716;7.086;2022-10-16T07:14:40;1.73;;;0.63;;
32130;SDS011;18639;50.716;7.086;2022-10-16T07:17:05;1.77;;;0.82;;
32130;SDS011;18639;50.716;7.086;2022-10-16T07:19:30;1.33;;;0.50;;
32130;SDS011;18639;50.716;7.086;2022-10-16T07:21:56;1.75;;;0.77;;
32130;SDS011;18639;50.716;7.086;2022-10-16T07:24:22;2.88;;;0.88;;
32130;SDS011;18639;50.716;7.086;2022-10-16T07:26:47;0.95;;;0.68;;
32130;SDS011;18639;50.716;7.086;2022-10-16T07:29:13;0.95;;;0.73;;
32130;SDS011;18639;50.716;7.086;2022-10-16T07:31:41;1.58;;;0.77;;
32130;SDS011;18639;50.716;7.086;2022-10-16T07:34:07;0.73;;;0.40;;
32130;SDS011;18639;50.716;7.086;2022-10-16T07:36:32;0.60;;;0.60;;
32130;SDS011;18639;50.716;7.086;2022-10-16T07:38:57;0.40;;;0.40;;
32130;SDS011;18639;50.716;7.086;2022-10-16T07:41:23;1.38;;;0.63;;
32130;SDS011;18639;50.716;7.086;2022-10-16T07:43:49;1.00;;;0.50;;
32130;SDS011;18639;50.716;7.086;2022-10-16T07:46:16;1.38;;;0.90;;
32130;SDS011;18639;50.716;7.086;2022-10-16T07:48:43;0.68;;;0.60;;
32130;SDS011;18639;50.716;7.086;2022-10-16T07:51:11;0.52;;;0.50;;
32130;SDS011;18639;50.716;7.086;2022-10-16T07:53:37;5.70;;;0.63;;
32130;SDS011;18639;50.716;7.086;2022-10-16T07:56:06;1.50;;;0.47;;
32130;SDS011;18639;50.716;7.086;2022-10-16T07:58:31;0.57;;;0.40;;
32130;SDS011;18639;50.716;7.086;2022-10-16T08:00:58;0.50;;;0.50;;
32130;SDS011;18639;50.716;7.086;2022-10-16T08:03:24;0.70;;;0.52;;
32130;SDS011;18639;50.716;7.086;2022-10-16T08:05:50;1.48;;;0.55;;
32130;SDS011;18639;50.716;7.086;2022-10-16T08:08:16;0.77;;;0.70;;
32130;SDS011;18639;50.716;7.086;2022-10-16T08:10:42;0.77;;;0.50;;
32130;SDS011;18639;50.716;7.086;2022-10-16T08:13:08;0.50;;;0.47;;
32130;SDS011;18639;50.716;7.086;2022-10-16T08:15:33;0.70;;;0.60;;
32130;SDS011;18639;50.716;7.086;2022-10-16T08:17:59;0.55;;;0.50;;
32130;SDS011;18639;50.716;7.086;2022-10-16T08:20:26;0.38;;;0.38;;
32130;SDS011;18639;50.716;7.086;2022-10-16T08:22:52;0.70;;;0.45;;
32130;SDS011;18639;50.716;7.086;2022-10-16T08:25:19;0.35;;;0.32;;
32130;SDS011;18639;50.716;7.086;2022-10-16T08:27:44;0.70;;;0.50;;
32130;SDS011;18639;50.716;7.086;2022-10-16T08:30:10;0.40;;;0.40;;
32130;SDS011;18639;50.716;7.086;2022-10-16T08:32:35;0.93;;;0.50;;
32130;SDS011;18639;50.716;7.086;2022-10-16T08:35:01;0.60;;;0.57;;
32130;SDS011;18639;50.716;7.086;2022-10-16T08:37:29;7.53;;;0.40;;
32130;SDS011;18639;50.716;7.086;2022-10-16T08:39:55;0.52;;;0.40;;
32130;SDS011;18639;50.716;7.086;2022-10-16T08:45:19;3.17;;;0.60;;
32130;SDS011;18639;50.716;7.086;2022-10-16T08:50:24;0.70;;;0.45;;
32130;SDS011;18639;50.716;7.086;2022-10-16T08:52:53;0.40;;;0.40;;
32130;SDS011;18639;50.716;7.086;2022-10-16T08:58:15;0.43;;;0.40;;
32130;SDS011;18639;50.716;7.086;2022-10-16T09:00:42;0.52;;;0.38;;
32130;SDS011;18639;50.716;7.086;2022-10-16T09:06:12;0.57;;;0.40;;
32130;SDS011;18639;50.716;7.086;2022-10-16T09:08:42;0.32;;;0.32;;
32130;SDS011;18639;50.716;7.086;2022-10-16T09:11:18;0.30;;;0.30;;
32130;SDS011;18639;50.716;7.086;2022-10-16T09:13:51;0.28;;;0.22;;
32130;SDS011;18639;50.716;7.086;2022-10-16T09:16:28;0.30;;;0.30;;
32130;SDS011;18639;50.716;7.086;2022-10-16T09:21:36;0.30;;;0.30;;
32130;SDS011;18639;50.716;7.086;2022-10-16T09:24:16;0.30;;;0.30;;
32130;SDS011;18639;50.716;7.086;2022-10-16T09:26:43;0.30;;;0.30;;
32130;SDS011;18639;50.716;7.086;2022-10-16T09:29:16;0.30;;;0.30;;
32130;SDS011;18639;50.716;7.086;2022-10-16T09:31:45;0.40;;;0.40;;
32130;SDS011;18639;50.716;7.086;2022-10-16T09:34:53;0.20;;;0.20;;
32130;SDS011;18639;50.716;7.086;2022-10-16T09:37:01;0.40;;;0.40;;
32130;SDS011;18639;50.716;7.086;2022-10-16T09:39:30;0.43;;;0.30;;
32130;SDS011;18639;50.716;7.086;2022-10-16T09:42:09;0.25;;;0.20;;
32130;SDS011;18639;50.716;7.086;2022-10-16T09:44:38;0.40;;;0.30;;
32130;SDS011;18639;50.716;7.086;2022-10-16T09:47:05;0.28;;;0.20;;
32130;SDS011;18639;50.716;7.086;2022-10-16T09:49:39;0.20;;;0.20;;
32130;SDS011;18639;50.716;7.086;2022-10-16T09:52:16;0.30;;;0.30;;
32130;SDS011;18639;50.716;7.086;2022-10-16T09:54:51;0.20;;;0.20;;
32130;SDS011;18639;50.716;7.086;2022-10-16T09:57:20;0.20;;;0.20;;
32130;SDS011;18639;50.716;7.086;2022-10-16T09:59:50;0.30;;;0.30;;
32130;SDS011;18639;50.716;7.086;2022-10-16T10:02:38;0.20;;;0.20;;
32130;SDS011;18639;50.716;7.086;2022-10-16T10:05:06;0.35;;;0.20;;
32130;SDS011;18639;50.716;7.086;2022-10-16T10:07:52;0.43;;;0.30;;
32130;SDS011;18639;50.716;7.086;2022-10-16T10:10:21;0.43;;;0.30;;
32130;SDS011;18639;50.716;7.086;2022-10-16T10:12:49;0.40;;;0.30;;
32130;SDS011;18639;50.716;7.086;2022-10-16T10:15:15;0.40;;;0.30;;
32130;SDS011;18639;50.716;7.086;2022-10-16T10:17:49;0.20;;;0.20;;
32130;SDS011;18639;50.716;7.086;2022-10-16T10:20:23;0.20;;;0.20;;
32130;SDS011;18639;50.716;7.086;2022-10-16T10:22:50;0.32;;;0.30;;
32130;SDS011;18639;50.716;7.086;2022-10-16T10:25:20;0.35;;;0.25;;
32130;SDS011;18639;50.716;7.086;2022-10-16T10:28:18;0.20;;;0.20;;
32130;SDS011;18639;50.716;7.086;2022-10-16T10:36:12;0.57;;;0.28;;
32130;SDS011;18639;50.716;7.086;2022-10-16T10:41:33;0.20;;;0.20;;
32130;SDS011;18639;50.716;7.086;2022-10-16T10:52:41;0.20;;;0.20;;
32130;SDS011;18639;50.716;7.086;2022-10-16T10:57:46;0.20;;;0.20;;
32130;SDS011;18639;50.716;7.086;2022-10-16T11:00:56;0.40;;;0.28;;
32130;SDS011;18639;50.716;7.086;2022-10-16T11:06:08;0.30;;;0.20;;
32130;SDS011;18639;50.716;7.086;2022-10-16T11:08:41;0.28;;;0.28;;
32130;SDS011;18639;50.716;7.086;2022-10-16T11:11:54;0.20;;;0.20;;
32130;SDS011;18639;50.716;7.086;2022-10-16T11:14:06;0.20;;;0.20;;
32130;SDS011;18639;50.716;7.086;2022-10-16T11:17:04;0.32;;;0.20;;
32130;SDS011;18639;50.716;7.086;2022-10-16T11:19:47;0.30;;;0.30;;
32130;SDS011;18639;50.716;7.086;2022-10-16T11:27:45;0.55;;;0.25;;
32130;SDS011;18639;50.716;7.086;2022-10-16T11:30:20;0.57;;;0.28;;
32130;SDS011;18639;50.716;7.086;2022-10-16T11:37:59;1.15;;;0.38;;
32130;SDS011;18639;50.716;7.086;2022-10-16T11:40:31;0.30;;;0.30;;
32130;SDS011;18639;50.716;7.086;2022-10-16T11:43:02;0.13;;;0.13;;
32130;SDS011;18639;50.716;7.086;2022-10-16T11:45:51;0.40;;;0.30;;
32130;SDS011;18639;50.716;7.086;2022-10-16T11:51:09;0.30;;;0.20;;
32130;SDS011;18639;50.716;7.086;2022-10-16T11:56:19;0.20;;;0.20;;
32130;SDS011;18639;50.716;7.086;2022-10-16T12:03:48;0.65;;;0.50;;
32130;SDS011;18639;50.716;7.086;2022-10-16T12:09:27;0.30;;;0.30;;
32130;SDS011;18639;50.716;7.086;2022-10-16T12:11:54;0.43;;;0.40;;
32130;SDS011;18639;50.716;7.086;2022-10-16T12:14:21;0.38;;;0.32;;
32130;SDS011;18639;50.716;7.086;2022-10-16T12:17:03;0.20;;;0.20;;
32130;SDS011;18639;50.716;7.086;2022-10-16T12:20:12;0.20;;;0.20;;
32130;SDS011;18639;50.716;7.086;2022-10-16T12:22:50;0.30;;;0.30;;
32130;SDS011;18639;50.716;7.086;2022-10-16T12:27:56;0.20;;;0.20;;
32130;SDS011;18639;50.716;7.086;2022-10-16T12:30:27;0.20;;;0.20;;
32130;SDS011;18639;50.716;7.086;2022-10-16T12:32:56;0.20;;;0.20;;
32130;SDS011;18639;50.716;7.086;2022-10-16T12:35:25;0.30;;;0.30;;
32130;SDS011;18639;50.716;7.086;2022-10-16T12:37:53;0.68;;;0.32;;
32130;SDS011;18639;50.716;7.086;2022-10-16T12:40:29;0.30;;;0.30;;
32130;SDS011;18639;50.716;7.086;2022-10-16T12:42:57;0.80;;;0.25;;
32130;SDS011;18639;50.716;7.086;2022-10-16T12:48:00;0.28;;;0.28;;
32130;SDS011;18639;50.716;7.086;2022-10-16T12:53:00;1.02;;;0.93;;
32130;SDS011;18639;50.716;7.086;2022-10-16T12:55:27;0.22;;;0.22;;
32130;SDS011;18639;50.716;7.086;2022-10-16T12:58:06;0.30;;;0.30;;
32130;SDS011;18639;50.716;7.086;2022-10-16T13:00:50;0.20;;;0.20;;
32130;SDS011;18639;50.716;7.086;2022-10-16T13:08:51;0.22;;;0.22;;
32130;SDS011;18639;50.716;7.086;2022-10-16T13:11:35;0.35;;;0.32;;
32130;SDS011;18639;50.716;7.086;2022-10-16T13:17:38;0.30;;;0.30;;
32130;SDS011;18639;50.716;7.086;2022-10-16T13:20:18;0.30;;;0.30;;
32130;SDS011;18639;50.716;7.086;2022-10-16T13:28:14;0.43;;;0.30;;
32130;SDS011;18639;50.716;7.086;2022-10-16T13:30:43;0.47;;;0.30;;
32130;SDS011;18639;50.716;7.086;2022-10-16T13:33:17;0.25;;;0.25;;
32130;SDS011;18639;50.716;7.086;2022-10-16T13:35:54;0.30;;;0.30;;
32130;SDS011;18639;50.716;7.086;2022-10-16T13:38:21;0.17;;;0.17;;
32130;SDS011;18639;50.716;7.086;2022-10-16T13:40:49;0.32;;;0.30;;
32130;SDS011;18639;50.716;7.086;2022-10-16T13:43:17;0.22;;;0.20;;
32130;SDS011;18639;50.716;7.086;2022-10-16T13:45:54;0.22;;;0.22;;
32130;SDS011;18639;50.716;7.086;2022-10-16T13:48:40;0.20;;;0.20;;
32130;SDS011;18639;50.716;7.086;2022-10-16T13:51:11;0.45;;;0.20;;
32130;SDS011;18639;50.716;7.086;2022-10-16T13:53:41;0.65;;;0.52;;
32130;SDS011;18639;50.716;7.086;2022-10-16T13:56:12;0.25;;;0.25;;
32130;SDS011;18639;50.716;7.086;2022-10-16T13:58:42;0.20;;;0.20;;
32130;SDS011;18639;50.716;7.086;2022-10-16T14:01:18;0.10;;;0.10;;
32130;SDS011;18639;50.716;7.086;2022-10-16T14:03:48;0.10;;;0.10;;
32130;SDS011;18639;50.716;7.086;2022-10-16T14:06:16;0.30;;;0.30;;
32130;SDS011;18639;50.716;7.086;2022-10-16T14:08:48;0.20;;;0.20;;
32130;SDS011;18639;50.716;7.086;2022-10-16T14:11:20;0.20;;;0.20;;
32130;SDS011;18639;50.716;7.086;2022-10-16T14:13:48;0.30;;;0.30;;
32130;SDS011;18639;50.716;7.086;2022-10-16T14:16:16;0.20;;;0.20;;
32130;SDS011;18639;50.716;7.086;2022-10-16T14:18:45;0.28;;;0.20;;
32130;SDS011;18639;50.716;7.086;2022-10-16T14:21:21;0.22;;;0.20;;
32130;SDS011;18639;50.716;7.086;2022-10-16T14:23:46;0.20;;;0.20;;
32130;SDS011;18639;50.716;7.086;2022-10-16T14:26:12;0.13;;;0.13;;
32130;SDS011;18639;50.716;7.086;2022-10-16T14:28:40;0.52;;;0.32;;
32130;SDS011;18639;50.716;7.086;2022-10-16T14:33:44;0.20;;;0.20;;
32130;SDS011;18639;50.716;7.086;2022-10-16T14:38:35;0.20;;;0.20;;
32130;SDS011;18639;50.716;7.086;2022-10-16T14:41:02;0.20;;;0.20;;
32130;SDS011;18639;50.716;7.086;2022-10-16T14:43:31;0.30;;;0.30;;
32130;SDS011;18639;50.716;7.086;2022-10-16T14:45:56;0.50;;;0.30;;
32130;SDS011;18639;50.716;7.086;2022-10-16T14:48:22;0.30;;;0.22;;
32130;SDS011;18639;50.716;7.086;2022-10-16T14:50:47;0.30;;;0.30;;
32130;SDS011;18639;50.716;7.086;2022-10-16T14:53:13;0.10;;;0.10;;
32130;SDS011;18639;50.716;7.086;2022-10-16T14:55:39;0.50;;;0.30;;
32130;SDS011;18639;50.716;7.086;2022-10-16T14:58:07;0.95;;;0.35;;
32130;SDS011;18639;50.716;7.086;2022-10-16T15:00:40;2.20;;;0.40;;
32130;SDS011;18639;50.716;7.086;2022-10-16T15:03:05;0.30;;;0.30;;
32130;SDS011;18639;50.716;7.086;2022-10-16T15:05:30;0.20;;;0.20;;
32130;SDS011;18639;50.716;7.086;2022-10-16T15:07:57;0.40;;;0.40;;
32130;SDS011;18639;50.716;7.086;2022-10-16T15:10:22;0.40;;;0.40;;
32130;SDS011;18639;50.716;7.086;2022-10-16T15:12:49;0.30;;;0.30;;
32130;SDS011;18639;50.716;7.086;2022-10-16T15:18:15;1.20;;;0.40;;
32130;SDS011;18639;50.716;7.086;2022-10-16T15:20:45;0.40;;;0.30;;
32130;SDS011;18639;50.716;7.086;2022-10-16T15:23:13;0.40;;;0.40;;
32130;SDS011;18639;50.716;7.086;2022-10-16T15:25:51;0.40;;;0.30;;
32130;SDS011;18639;50.716;7.086;2022-10-16T15:28:18;0.30;;;0.30;;
32130;SDS011;18639;50.716;7.086;2022-10-16T15:30:44;0.60;;;0.40;;
32130;SDS011;18639;50.716;7.086;2022-10-16T15:33:17;0.40;;;0.30;;
32130;SDS011;18639;50.716;7.086;2022-10-16T15:35:47;1.33;;;0.47;;
32130;SDS011;18639;50.716;7.086;2022-10-16T15:38:14;0.22;;;0.22;;
32130;SDS011;18639;50.716;7.086;2022-10-16T15:40:40;0.60;;;0.30;;
32130;SDS011;18639;50.716;7.086;2022-10-16T15:43:06;0.40;;;0.40;;
32130;SDS011;18639;50.716;7.086;2022-10-16T15:45:31;0.35;;;0.30;;
32130;SDS011;18639;50.716;7.086;2022-10-16T15:47:56;0.45;;;0.45;;
32130;SDS011;18639;50.716;7.086;2022-10-16T15:50:22;0.73;;;0.40;;
32130;SDS011;18639;50.716;7.086;2022-10-16T15:52:47;0.68;;;0.40;;
32130;SDS011;18639;50.716;7.086;2022-10-16T15:55:13;0.50;;;0.50;;
32130;SDS011;18639;50.716;7.086;2022-10-16T15:57:39;0.30;;;0.30;;
32130;SDS011;18639;50.716;7.086;2022-10-16T16:00:08;0.82;;;0.25;;
32130;SDS011;18639;50.716;7.086;2022-10-16T16:02:36;0.45;;;0.40;;
32130;SDS011;18639;50.716;7.086;2022-10-16T16:05:01;0.45;;;0.40;;
32130;SDS011;18639;50.716;7.086;2022-10-16T16:07:26;0.30;;;0.30;;
32130;SDS011;18639;50.716;7.086;2022-10-16T16:09:52;0.25;;;0.25;;
32130;SDS011;18639;50.716;7.086;2022-10-16T16:12:17;0.40;;;0.30;;
32130;SDS011;18639;50.716;7.086;2022-10-16T16:14:43;1.20;;;0.30;;
32130;SDS011;18639;50.716;7.086;2022-10-16T16:17:10;0.85;;;0.50;;
32130;SDS011;18639;50.716;7.086;2022-10-16T16:19:36;0.30;;;0.30;;
32130;SDS011;18639;50.716;7.086;2022-10-16T16:22:01;0.32;;;0.30;;
32130;SDS011;18639;50.716;7.086;2022-10-16T16:24:26;0.57;;;0.40;;
32130;SDS011;18639;50.716;7.086;2022-10-16T16:26:52;0.30;;;0.30;;
32130;SDS011;18639;50.716;7.086;2022-10-16T16:29:17;0.40;;;0.30;;